sensor_id;sensor_type;location;lat;lon;timestamp;P1;durP1;ratioP1;P2;durP2;ratioP2
40533;SDS011;26233;51.894;10.192;2022-11-14T00:00:55;7.10;;;6.40;;
40533;SDS011;26233;51.894;10.192;2022-11-14T00:03:22;7.60;;;6.53;;
40533;SDS011;26233;51.894;10.192;2022-11-14T00:05:50;7.47;;;6.50;;
40533;SDS011;26233;51.894;10.192;2022-11-14T00:08:17;7.20;;;6.33;;
40533;SDS011;26233;51.894;10.192;2022-11-14T00:10:47;8.03;;;7.23;;
40533;SDS011;26233;51.894;10.192;2022-11-14T00:13:16;8.40;;;6.77;;
40533;SDS011;26233;51.894;10.192;2022-11-14T00:15:47;9.47;;;6.50;;
40533;SDS011;26233;51.894;10.192;2022-11-14T00:18:19;9.10;;;7.37;;
40533;SDS011;26233;51.894;10.192;2022-11-14T00:20:47;9.40;;;7.07;;
40533;SDS011;26233;51.894;10.192;2022-11-14T00:23:15;11.83;;;6.93;;
40533;SDS011;26233;51.894;10.192;2022-11-14T00:25:42;14.40;;;7.00;;
40533;SDS011;26233;51.894;10.192;2022-11-14T00:28:10;8.57;;;6.47;;
40533;SDS011;26233;51.894;10.192;2022-11-14T00:30:38;8.57;;;7.00;;
40533;SDS011;26233;51.894;10.192;2022-11-14T00:33:05;9.93;;;7.63;;
40533;SDS011;26233;51.894;10.192;2022-11-14T00:35:34;11.47;;;7.83;;
40533;SDS011;26233;51.894;10.192;2022-11-14T00:38:01;13.20;;;7.50;;
40533;SDS011;26233;51.894;10.192;2022-11-14T00:40:28;11.97;;;7.80;;
40533;SDS011;26233;51.894;10.192;2022-11-14T00:42:55;11.13;;;7.43;;
40533;SDS011;26233;51.894;10.192;2022-11-14T00:45:22;10.43;;;7.83;;
40533;SDS011;26233;51.894;10.192;2022-11-14T00:47:50;12.37;;;8.20;;
40533;SDS011;26233;51.894;10.192;2022-11-14T00:50:17;10.00;;;7.50;;
40533;SDS011;26233;51.894;10.192;2022-11-14T00:52:46;8.63;;;7.00;;
40533;SDS011;26233;51.894;10.192;2022-11-14T00:55:13;9.57;;;7.70;;
40533;SDS011;26233;51.894;10.192;2022-11-14T00:57:40;8.67;;;7.13;;
40533;SDS011;26233;51.894;10.192;2022-11-14T01:00:08;18.10;;;7.17;;
40533;SDS011;26233;51.894;10.192;2022-11-14T01:02:38;11.20;;;6.67;;
40533;SDS011;26233;51.894;10.192;2022-11-14T01:05:08;8.37;;;6.43;;
40533;SDS011;26233;51.894;10.192;2022-11-14T01:07:35;11.93;;;7.20;;
40533;SDS011;26233;51.894;10.192;2022-11-14T01:10:04;13.40;;;6.47;;
40533;SDS011;26233;51.894;10.192;2022-11-14T01:12:35;11.73;;;6.73;;
40533;SDS011;26233;51.894;10.192;2022-11-14T01:15:05;8.13;;;5.90;;
40533;SDS011;26233;51.894;10.192;2022-11-14T01:17:33;11.67;;;7.03;;
40533;SDS011;26233;51.894;10.192;2022-11-14T01:20:01;10.00;;;7.20;;
40533;SDS011;26233;51.894;10.192;2022-11-14T01:22:32;12.17;;;7.13;;
40533;SDS011;26233;51.894;10.192;2022-11-14T01:24:59;9.13;;;6.57;;
40533;SDS011;26233;51.894;10.192;2022-11-14T01:27:30;11.27;;;6.67;;
40533;SDS011;26233;51.894;10.192;2022-11-14T01:29:58;13.97;;;6.70;;
40533;SDS011;26233;51.894;10.192;2022-11-14T01:32:25;10.17;;;7.03;;
40533;SDS011;26233;51.894;10.192;2022-11-14T01:34:53;11.43;;;7.27;;
40533;SDS011;26233;51.894;10.192;2022-11-14T01:37:20;8.83;;;6.67;;
40533;SDS011;26233;51.894;10.192;2022-11-14T01:39:47;15.87;;;7.10;;
40533;SDS011;26233;51.894;10.192;2022-11-14T01:42:15;16.87;;;7.37;;
40533;SDS011;26233;51.894;10.192;2022-11-14T01:44:47;16.27;;;6.60;;
40533;SDS011;26233;51.894;10.192;2022-11-14T01:47:18;19.43;;;7.47;;
40533;SDS011;26233;51.894;10.192;2022-11-14T01:49:49;17.00;;;6.90;;
40533;SDS011;26233;51.894;10.192;2022-11-14T01:52:21;14.97;;;6.37;;
40533;SDS011;26233;51.894;10.192;2022-11-14T01:54:52;11.93;;;6.67;;
40533;SDS011;26233;51.894;10.192;2022-11-14T01:57:22;15.93;;;7.00;;
40533;SDS011;26233;51.894;10.192;2022-11-14T01:59:57;13.90;;;7.23;;
40533;SDS011;26233;51.894;10.192;2022-11-14T02:02:29;15.03;;;6.97;;
40533;SDS011;26233;51.894;10.192;2022-11-14T02:04:59;12.37;;;6.47;;
40533;SDS011;26233;51.894;10.192;2022-11-14T02:07:31;18.10;;;6.77;;
40533;SDS011;26233;51.894;10.192;2022-11-14T02:10:03;18.23;;;6.73;;
40533;SDS011;26233;51.894;10.192;2022-11-14T02:12:40;16.83;;;6.73;;
40533;SDS011;26233;51.894;10.192;2022-11-14T02:15:08;9.83;;;6.30;;
40533;SDS011;26233;51.894;10.192;2022-11-14T02:17:39;11.67;;;6.13;;
40533;SDS011;26233;51.894;10.192;2022-11-14T02:20:19;10.40;;;6.30;;
40533;SDS011;26233;51.894;10.192;2022-11-14T02:22:52;10.93;;;6.23;;
40533;SDS011;26233;51.894;10.192;2022-11-14T02:25:20;11.00;;;6.60;;
40533;SDS011;26233;51.894;10.192;2022-11-14T02:27:47;10.07;;;6.40;;
40533;SDS011;26233;51.894;10.192;2022-11-14T02:30:16;7.63;;;6.10;;
40533;SDS011;26233;51.894;10.192;2022-11-14T02:32:46;11.53;;;6.80;;
40533;SDS011;26233;51.894;10.192;2022-11-14T02:35:13;11.43;;;6.30;;
40533;SDS011;26233;51.894;10.192;2022-11-14T02:37:41;15.87;;;6.90;;
40533;SDS011;26233;51.894;10.192;2022-11-14T02:40:09;9.53;;;5.63;;
40533;SDS011;26233;51.894;10.192;2022-11-14T02:42:37;12.90;;;6.27;;
40533;SDS011;26233;51.894;10.192;2022-11-14T02:45:04;8.53;;;5.47;;
40533;SDS011;26233;51.894;10.192;2022-11-14T02:47:33;16.83;;;5.73;;
40533;SDS011;26233;51.894;10.192;2022-11-14T02:50:00;8.23;;;5.20;;
40533;SDS011;26233;51.894;10.192;2022-11-14T02:52:27;16.73;;;5.73;;
40533;SDS011;26233;51.894;10.192;2022-11-14T02:54:56;14.67;;;6.17;;
40533;SDS011;26233;51.894;10.192;2022-11-14T02:57:23;18.90;;;6.33;;
40533;SDS011;26233;51.894;10.192;2022-11-14T02:59:50;9.37;;;5.40;;
40533;SDS011;26233;51.894;10.192;2022-11-14T03:02:17;12.27;;;5.90;;
40533;SDS011;26233;51.894;10.192;2022-11-14T03:04:44;8.53;;;4.97;;
40533;SDS011;26233;51.894;10.192;2022-11-14T03:07:12;9.47;;;6.13;;
40533;SDS011;26233;51.894;10.192;2022-11-14T03:09:39;6.70;;;5.67;;
40533;SDS011;26233;51.894;10.192;2022-11-14T03:12:07;7.77;;;6.30;;
40533;SDS011;26233;51.894;10.192;2022-11-14T03:14:35;8.93;;;5.60;;
40533;SDS011;26233;51.894;10.192;2022-11-14T03:17:02;9.87;;;5.93;;
40533;SDS011;26233;51.894;10.192;2022-11-14T03:19:29;12.10;;;5.77;;
40533;SDS011;26233;51.894;10.192;2022-11-14T03:21:56;18.43;;;6.07;;
40533;SDS011;26233;51.894;10.192;2022-11-14T03:24:23;11.03;;;5.97;;
40533;SDS011;26233;51.894;10.192;2022-11-14T03:26:50;22.63;;;6.93;;
40533;SDS011;26233;51.894;10.192;2022-11-14T03:29:19;9.77;;;6.00;;
40533;SDS011;26233;51.894;10.192;2022-11-14T03:31:46;13.47;;;6.63;;
40533;SDS011;26233;51.894;10.192;2022-11-14T03:34:14;16.30;;;6.57;;
40533;SDS011;26233;51.894;10.192;2022-11-14T03:36:41;14.83;;;6.60;;
40533;SDS011;26233;51.894;10.192;2022-11-14T03:39:08;14.87;;;6.17;;
40533;SDS011;26233;51.894;10.192;2022-11-14T03:41:35;11.13;;;5.80;;
40533;SDS011;26233;51.894;10.192;2022-11-14T03:44:02;9.90;;;5.97;;
40533;SDS011;26233;51.894;10.192;2022-11-14T03:46:34;17.73;;;7.40;;
40533;SDS011;26233;51.894;10.192;2022-11-14T03:49:01;18.23;;;7.10;;
40533;SDS011;26233;51.894;10.192;2022-11-14T03:51:29;13.53;;;5.87;;
40533;SDS011;26233;51.894;10.192;2022-11-14T03:53:58;19.60;;;6.80;;
40533;SDS011;26233;51.894;10.192;2022-11-14T03:56:25;10.30;;;6.27;;
40533;SDS011;26233;51.894;10.192;2022-11-14T03:58:55;12.03;;;6.30;;
40533;SDS011;26233;51.894;10.192;2022-11-14T04:01:22;12.37;;;6.50;;
40533;SDS011;26233;51.894;10.192;2022-11-14T04:03:51;9.67;;;6.47;;
40533;SDS011;26233;51.894;10.192;2022-11-14T04:06:18;11.23;;;6.57;;
40533;SDS011;26233;51.894;10.192;2022-11-14T04:08:45;9.63;;;6.23;;
40533;SDS011;26233;51.894;10.192;2022-11-14T04:11:12;7.53;;;5.93;;
40533;SDS011;26233;51.894;10.192;2022-11-14T04:13:39;14.30;;;6.90;;
40533;SDS011;26233;51.894;10.192;2022-11-14T04:16:06;10.73;;;5.80;;
40533;SDS011;26233;51.894;10.192;2022-11-14T04:18:33;9.20;;;6.23;;
40533;SDS011;26233;51.894;10.192;2022-11-14T04:21:03;9.87;;;6.47;;
40533;SDS011;26233;51.894;10.192;2022-11-14T04:23:31;11.20;;;6.10;;
40533;SDS011;26233;51.894;10.192;2022-11-14T04:25:58;14.27;;;6.30;;
40533;SDS011;26233;51.894;10.192;2022-11-14T04:28:25;11.87;;;6.30;;
40533;SDS011;26233;51.894;10.192;2022-11-14T04:30:52;12.70;;;5.93;;
40533;SDS011;26233;51.894;10.192;2022-11-14T04:33:19;12.03;;;5.60;;
40533;SDS011;26233;51.894;10.192;2022-11-14T04:35:46;10.83;;;5.73;;
40533;SDS011;26233;51.894;10.192;2022-11-14T04:38:15;17.93;;;6.07;;
40533;SDS011;26233;51.894;10.192;2022-11-14T04:40:46;10.53;;;5.87;;
40533;SDS011;26233;51.894;10.192;2022-11-14T04:43:16;8.30;;;5.80;;
40533;SDS011;26233;51.894;10.192;2022-11-14T04:45:43;11.00;;;6.03;;
40533;SDS011;26233;51.894;10.192;2022-11-14T04:48:11;7.40;;;6.00;;
40533;SDS011;26233;51.894;10.192;2022-11-14T04:50:39;6.13;;;5.37;;
40533;SDS011;26233;51.894;10.192;2022-11-14T04:53:06;6.73;;;5.47;;
40533;SDS011;26233;51.894;10.192;2022-11-14T04:55:34;8.90;;;6.27;;
40533;SDS011;26233;51.894;10.192;2022-11-14T04:58:04;9.83;;;5.73;;
40533;SDS011;26233;51.894;10.192;2022-11-14T05:00:31;6.80;;;5.80;;
40533;SDS011;26233;51.894;10.192;2022-11-14T05:02:58;7.67;;;5.77;;
40533;SDS011;26233;51.894;10.192;2022-11-14T05:05:25;7.00;;;5.63;;
40533;SDS011;26233;51.894;10.192;2022-11-14T05:07:53;8.13;;;5.73;;
40533;SDS011;26233;51.894;10.192;2022-11-14T05:10:20;8.67;;;6.13;;
40533;SDS011;26233;51.894;10.192;2022-11-14T05:12:51;9.43;;;5.63;;
40533;SDS011;26233;51.894;10.192;2022-11-14T05:15:19;11.10;;;5.93;;
40533;SDS011;26233;51.894;10.192;2022-11-14T05:17:47;16.77;;;5.93;;
40533;SDS011;26233;51.894;10.192;2022-11-14T05:20:14;17.73;;;7.20;;
40533;SDS011;26233;51.894;10.192;2022-11-14T05:22:42;15.00;;;6.30;;
40533;SDS011;26233;51.894;10.192;2022-11-14T05:25:09;8.97;;;6.10;;
40533;SDS011;26233;51.894;10.192;2022-11-14T05:27:36;16.77;;;6.67;;
40533;SDS011;26233;51.894;10.192;2022-11-14T05:30:05;13.03;;;7.23;;
40533;SDS011;26233;51.894;10.192;2022-11-14T05:32:34;13.87;;;6.53;;
40533;SDS011;26233;51.894;10.192;2022-11-14T05:35:01;18.73;;;7.00;;
40533;SDS011;26233;51.894;10.192;2022-11-14T05:37:29;23.33;;;7.33;;
40533;SDS011;26233;51.894;10.192;2022-11-14T05:39:56;21.27;;;8.37;;
40533;SDS011;26233;51.894;10.192;2022-11-14T05:42:23;16.90;;;6.87;;
40533;SDS011;26233;51.894;10.192;2022-11-14T05:44:50;16.17;;;6.73;;
40533;SDS011;26233;51.894;10.192;2022-11-14T05:47:19;11.83;;;6.60;;
40533;SDS011;26233;51.894;10.192;2022-11-14T05:49:46;14.10;;;6.83;;
40533;SDS011;26233;51.894;10.192;2022-11-14T05:52:15;25.77;;;7.17;;
40533;SDS011;26233;51.894;10.192;2022-11-14T05:54:42;16.87;;;6.47;;
40533;SDS011;26233;51.894;10.192;2022-11-14T05:57:09;19.87;;;7.43;;
40533;SDS011;26233;51.894;10.192;2022-11-14T05:59:36;13.57;;;6.10;;
40533;SDS011;26233;51.894;10.192;2022-11-14T06:02:04;18.07;;;6.53;;
40533;SDS011;26233;51.894;10.192;2022-11-14T06:04:32;16.03;;;6.37;;
40533;SDS011;26233;51.894;10.192;2022-11-14T06:07:02;11.97;;;6.27;;
40533;SDS011;26233;51.894;10.192;2022-11-14T06:09:31;16.97;;;6.80;;
40533;SDS011;26233;51.894;10.192;2022-11-14T06:11:58;13.30;;;6.00;;
40533;SDS011;26233;51.894;10.192;2022-11-14T06:14:30;11.37;;;6.77;;
40533;SDS011;26233;51.894;10.192;2022-11-14T06:16:57;17.53;;;7.23;;
40533;SDS011;26233;51.894;10.192;2022-11-14T06:19:24;17.13;;;7.90;;
40533;SDS011;26233;51.894;10.192;2022-11-14T06:21:52;16.90;;;7.70;;
40533;SDS011;26233;51.894;10.192;2022-11-14T06:24:19;19.53;;;8.17;;
40533;SDS011;26233;51.894;10.192;2022-11-14T06:26:46;21.50;;;6.90;;
40533;SDS011;26233;51.894;10.192;2022-11-14T06:29:14;14.87;;;6.33;;
40533;SDS011;26233;51.894;10.192;2022-11-14T06:31:41;15.73;;;6.57;;
40533;SDS011;26233;51.894;10.192;2022-11-14T06:34:09;13.83;;;7.00;;
40533;SDS011;26233;51.894;10.192;2022-11-14T06:36:39;20.27;;;6.93;;
40533;SDS011;26233;51.894;10.192;2022-11-14T06:39:08;9.33;;;5.53;;
40533;SDS011;26233;51.894;10.192;2022-11-14T06:41:35;8.20;;;6.63;;
40533;SDS011;26233;51.894;10.192;2022-11-14T06:44:02;10.97;;;6.07;;
40533;SDS011;26233;51.894;10.192;2022-11-14T06:46:29;8.07;;;5.60;;
40533;SDS011;26233;51.894;10.192;2022-11-14T06:48:56;13.03;;;7.27;;
40533;SDS011;26233;51.894;10.192;2022-11-14T06:51:23;8.97;;;7.30;;
40533;SDS011;26233;51.894;10.192;2022-11-14T06:53:53;13.00;;;6.67;;
40533;SDS011;26233;51.894;10.192;2022-11-14T06:56:24;8.87;;;7.70;;
40533;SDS011;26233;51.894;10.192;2022-11-14T06:58:54;14.57;;;11.33;;
40533;SDS011;26233;51.894;10.192;2022-11-14T07:01:22;12.53;;;9.97;;
40533;SDS011;26233;51.894;10.192;2022-11-14T07:03:51;11.60;;;8.00;;
40533;SDS011;26233;51.894;10.192;2022-11-14T07:06:18;10.30;;;7.13;;
40533;SDS011;26233;51.894;10.192;2022-11-14T07:08:49;9.10;;;7.30;;
40533;SDS011;26233;51.894;10.192;2022-11-14T07:11:19;9.20;;;7.73;;
40533;SDS011;26233;51.894;10.192;2022-11-14T07:13:51;9.87;;;7.57;;
40533;SDS011;26233;51.894;10.192;2022-11-14T07:16:23;8.83;;;6.97;;
40533;SDS011;26233;51.894;10.192;2022-11-14T07:19:02;7.53;;;6.10;;
40533;SDS011;26233;51.894;10.192;2022-11-14T07:21:34;9.53;;;6.47;;
40533;SDS011;26233;51.894;10.192;2022-11-14T07:24:01;10.87;;;5.97;;
40533;SDS011;26233;51.894;10.192;2022-11-14T07:26:29;10.93;;;6.60;;
40533;SDS011;26233;51.894;10.192;2022-11-14T07:28:57;14.17;;;7.10;;
40533;SDS011;26233;51.894;10.192;2022-11-14T07:31:24;18.40;;;6.27;;
40533;SDS011;26233;51.894;10.192;2022-11-14T07:33:52;21.40;;;6.70;;
40533;SDS011;26233;51.894;10.192;2022-11-14T07:36:19;9.70;;;5.70;;
40533;SDS011;26233;51.894;10.192;2022-11-14T07:38:46;25.07;;;6.30;;
40533;SDS011;26233;51.894;10.192;2022-11-14T07:41:14;11.57;;;5.53;;
40533;SDS011;26233;51.894;10.192;2022-11-14T07:43:42;9.33;;;5.37;;
40533;SDS011;26233;51.894;10.192;2022-11-14T07:46:12;9.10;;;6.17;;
40533;SDS011;26233;51.894;10.192;2022-11-14T07:48:40;17.43;;;6.40;;
40533;SDS011;26233;51.894;10.192;2022-11-14T07:51:13;12.03;;;6.27;;
40533;SDS011;26233;51.894;10.192;2022-11-14T07:53:42;13.87;;;6.50;;
40533;SDS011;26233;51.894;10.192;2022-11-14T07:56:10;16.20;;;6.07;;
40533;SDS011;26233;51.894;10.192;2022-11-14T07:58:38;32.57;;;7.70;;
40533;SDS011;26233;51.894;10.192;2022-11-14T08:01:06;17.40;;;6.40;;
40533;SDS011;26233;51.894;10.192;2022-11-14T08:03:38;12.13;;;6.10;;
40533;SDS011;26233;51.894;10.192;2022-11-14T08:06:06;39.93;;;7.23;;
40533;SDS011;26233;51.894;10.192;2022-11-14T08:08:36;7.70;;;5.03;;
40533;SDS011;26233;51.894;10.192;2022-11-14T08:11:03;12.53;;;5.57;;
40533;SDS011;26233;51.894;10.192;2022-11-14T08:13:31;10.47;;;5.80;;
40533;SDS011;26233;51.894;10.192;2022-11-14T08:16:05;8.83;;;5.73;;
40533;SDS011;26233;51.894;10.192;2022-11-14T08:18:34;14.43;;;5.37;;
40533;SDS011;26233;51.894;10.192;2022-11-14T08:21:03;21.47;;;6.50;;
40533;SDS011;26233;51.894;10.192;2022-11-14T08:23:31;10.07;;;5.60;;
40533;SDS011;26233;51.894;10.192;2022-11-14T08:25:59;17.03;;;6.30;;
40533;SDS011;26233;51.894;10.192;2022-11-14T08:28:26;13.33;;;5.57;;
40533;SDS011;26233;51.894;10.192;2022-11-14T08:30:57;9.17;;;5.30;;
40533;SDS011;26233;51.894;10.192;2022-11-14T08:33:25;7.23;;;5.13;;
40533;SDS011;26233;51.894;10.192;2022-11-14T08:35:52;26.77;;;7.60;;
40533;SDS011;26233;51.894;10.192;2022-11-14T08:38:21;31.80;;;7.00;;
40533;SDS011;26233;51.894;10.192;2022-11-14T08:40:48;12.83;;;5.90;;
40533;SDS011;26233;51.894;10.192;2022-11-14T08:43:15;9.90;;;5.63;;
40533;SDS011;26233;51.894;10.192;2022-11-14T08:45:42;33.47;;;8.30;;
40533;SDS011;26233;51.894;10.192;2022-11-14T08:48:09;18.07;;;6.63;;
40533;SDS011;26233;51.894;10.192;2022-11-14T08:50:36;14.47;;;6.13;;
40533;SDS011;26233;51.894;10.192;2022-11-14T08:53:04;10.20;;;6.80;;
40533;SDS011;26233;51.894;10.192;2022-11-14T08:55:32;14.37;;;6.13;;
40533;SDS011;26233;51.894;10.192;2022-11-14T08:57:59;8.30;;;5.70;;
40533;SDS011;26233;51.894;10.192;2022-11-14T09:00:26;7.80;;;6.23;;
40533;SDS011;26233;51.894;10.192;2022-11-14T09:02:54;22.27;;;7.50;;
40533;SDS011;26233;51.894;10.192;2022-11-14T09:05:21;30.83;;;7.07;;
40533;SDS011;26233;51.894;10.192;2022-11-14T09:07:48;10.37;;;5.90;;
40533;SDS011;26233;51.894;10.192;2022-11-14T09:10:15;7.63;;;6.00;;
40533;SDS011;26233;51.894;10.192;2022-11-14T09:12:43;6.63;;;5.90;;
40533;SDS011;26233;51.894;10.192;2022-11-14T09:15:10;6.37;;;5.77;;
40533;SDS011;26233;51.894;10.192;2022-11-14T09:17:38;7.17;;;6.47;;
40533;SDS011;26233;51.894;10.192;2022-11-14T09:20:05;7.83;;;6.87;;
40533;SDS011;26233;51.894;10.192;2022-11-14T09:22:32;8.90;;;8.00;;
40533;SDS011;26233;51.894;10.192;2022-11-14T09:25:00;8.80;;;7.90;;
40533;SDS011;26233;51.894;10.192;2022-11-14T09:27:27;11.03;;;7.73;;
40533;SDS011;26233;51.894;10.192;2022-11-14T09:29:55;11.13;;;7.23;;
40533;SDS011;26233;51.894;10.192;2022-11-14T09:32:22;8.47;;;6.70;;
40533;SDS011;26233;51.894;10.192;2022-11-14T09:34:49;11.47;;;7.20;;
40533;SDS011;26233;51.894;10.192;2022-11-14T09:37:16;13.60;;;7.30;;
40533;SDS011;26233;51.894;10.192;2022-11-14T09:39:43;10.10;;;7.07;;
40533;SDS011;26233;51.894;10.192;2022-11-14T09:42:22;8.27;;;7.00;;
40533;SDS011;26233;51.894;10.192;2022-11-14T09:45:10;8.93;;;6.87;;
40533;SDS011;26233;51.894;10.192;2022-11-14T09:47:39;9.53;;;6.43;;
40533;SDS011;26233;51.894;10.192;2022-11-14T09:50:10;9.27;;;7.33;;
40533;SDS011;26233;51.894;10.192;2022-11-14T09:52:41;9.10;;;6.77;;
40533;SDS011;26233;51.894;10.192;2022-11-14T09:55:13;10.67;;;7.30;;
40533;SDS011;26233;51.894;10.192;2022-11-14T09:57:45;10.47;;;7.03;;
40533;SDS011;26233;51.894;10.192;2022-11-14T10:00:15;12.33;;;7.60;;
40533;SDS011;26233;51.894;10.192;2022-11-14T10:02:56;8.70;;;7.00;;
40533;SDS011;26233;51.894;10.192;2022-11-14T10:05:41;8.10;;;7.30;;
40533;SDS011;26233;51.894;10.192;2022-11-14T10:08:29;8.17;;;7.37;;
40533;SDS011;26233;51.894;10.192;2022-11-14T10:11:18;8.70;;;7.80;;
40533;SDS011;26233;51.894;10.192;2022-11-14T10:13:52;8.30;;;7.50;;
40533;SDS011;26233;51.894;10.192;2022-11-14T10:16:45;9.77;;;8.77;;
40533;SDS011;26233;51.894;10.192;2022-11-14T10:19:24;9.63;;;8.63;;
40533;SDS011;26233;51.894;10.192;2022-11-14T10:22:03;8.67;;;7.87;;
40533;SDS011;26233;51.894;10.192;2022-11-14T10:27:56;10.60;;;9.50;;
40533;SDS011;26233;51.894;10.192;2022-11-14T10:30:55;9.83;;;8.83;;
40533;SDS011;26233;51.894;10.192;2022-11-14T10:33:38;10.55;;;9.50;;
40533;SDS011;26233;51.894;10.192;2022-11-14T10:36:18;10.27;;;9.10;;
40533;SDS011;26233;51.894;10.192;2022-11-14T10:39:03;10.45;;;9.40;;
40533;SDS011;26233;51.894;10.192;2022-11-14T10:41:38;9.60;;;8.70;;
40533;SDS011;26233;51.894;10.192;2022-11-14T10:44:07;9.57;;;8.68;;
40533;SDS011;26233;51.894;10.192;2022-11-14T10:46:40;9.65;;;8.75;;
40533;SDS011;26233;51.894;10.192;2022-11-14T10:49:14;10.60;;;9.50;;
40533;SDS011;26233;51.894;10.192;2022-11-14T10:51:45;9.63;;;8.75;;
40533;SDS011;26233;51.894;10.192;2022-11-14T10:54:16;9.93;;;8.93;;
40533;SDS011;26233;51.894;10.192;2022-11-14T10:56:48;10.02;;;9.02;;
40533;SDS011;26233;51.894;10.192;2022-11-14T10:59:17;10.13;;;9.18;;
40533;SDS011;26233;51.894;10.192;2022-11-14T11:01:52;9.68;;;8.75;;
40533;SDS011;26233;51.894;10.192;2022-11-14T11:04:27;9.32;;;8.52;;
40533;SDS011;26233;51.894;10.192;2022-11-14T11:06:56;9.88;;;9.07;;
40533;SDS011;26233;51.894;10.192;2022-11-14T11:09:58;9.80;;;8.90;;
40533;SDS011;26233;51.894;10.192;2022-11-14T11:12:44;10.07;;;9.18;;
40533;SDS011;26233;51.894;10.192;2022-11-14T11:15:14;9.85;;;9.00;;
40533;SDS011;26233;51.894;10.192;2022-11-14T11:17:52;10.02;;;9.13;;
40533;SDS011;26233;51.894;10.192;2022-11-14T11:20:25;10.10;;;9.10;;
40533;SDS011;26233;51.894;10.192;2022-11-14T11:23:03;9.88;;;8.98;;
40533;SDS011;26233;51.894;10.192;2022-11-14T11:25:32;9.48;;;8.57;;
40533;SDS011;26233;51.894;10.192;2022-11-14T11:28:04;15.45;;;13.00;;
40533;SDS011;26233;51.894;10.192;2022-11-14T11:30:38;18.17;;;15.15;;
40533;SDS011;26233;51.894;10.192;2022-11-14T11:33:16;15.82;;;13.63;;
40533;SDS011;26233;51.894;10.192;2022-11-14T11:35:52;12.35;;;10.95;;
40533;SDS011;26233;51.894;10.192;2022-11-14T11:38:23;10.48;;;9.35;;
40533;SDS011;26233;51.894;10.192;2022-11-14T11:40:53;10.00;;;8.88;;
40533;SDS011;26233;51.894;10.192;2022-11-14T11:43:32;9.00;;;8.10;;
40533;SDS011;26233;51.894;10.192;2022-11-14T11:46:07;9.43;;;8.63;;
40533;SDS011;26233;51.894;10.192;2022-11-14T11:48:41;9.38;;;8.57;;
40533;SDS011;26233;51.894;10.192;2022-11-14T11:51:15;9.30;;;8.40;;
40533;SDS011;26233;51.894;10.192;2022-11-14T11:53:50;9.00;;;8.15;;
40533;SDS011;26233;51.894;10.192;2022-11-14T11:56:26;8.70;;;8.00;;
40533;SDS011;26233;51.894;10.192;2022-11-14T11:58:59;9.63;;;8.73;;
40533;SDS011;26233;51.894;10.192;2022-11-14T12:01:45;8.98;;;8.13;;
40533;SDS011;26233;51.894;10.192;2022-11-14T12:04:13;9.10;;;8.20;;
40533;SDS011;26233;51.894;10.192;2022-11-14T12:06:43;10.15;;;9.25;;
40533;SDS011;26233;51.894;10.192;2022-11-14T12:09:17;8.80;;;7.90;;
40533;SDS011;26233;51.894;10.192;2022-11-14T12:11:47;8.68;;;7.88;;
40533;SDS011;26233;51.894;10.192;2022-11-14T12:17:30;8.20;;;7.35;;
40533;SDS011;26233;51.894;10.192;2022-11-14T12:23:43;7.68;;;7.07;;
40533;SDS011;26233;51.894;10.192;2022-11-14T12:26:55;7.95;;;7.25;;
40533;SDS011;26233;51.894;10.192;2022-11-14T12:29:44;7.30;;;6.70;;
40533;SDS011;26233;51.894;10.192;2022-11-14T12:32:24;8.23;;;7.43;;
40533;SDS011;26233;51.894;10.192;2022-11-14T12:34:55;7.50;;;6.80;;
40533;SDS011;26233;51.894;10.192;2022-11-14T12:37:26;8.07;;;7.35;;
40533;SDS011;26233;51.894;10.192;2022-11-14T12:40:00;7.45;;;6.85;;
40533;SDS011;26233;51.894;10.192;2022-11-14T12:42:31;6.75;;;6.15;;
40533;SDS011;26233;51.894;10.192;2022-11-14T12:44:59;7.22;;;6.53;;
40533;SDS011;26233;51.894;10.192;2022-11-14T12:47:26;7.13;;;6.53;;
40533;SDS011;26233;51.894;10.192;2022-11-14T12:50:04;7.28;;;6.68;;
40533;SDS011;26233;51.894;10.192;2022-11-14T12:53:20;7.00;;;6.40;;
40533;SDS011;26233;51.894;10.192;2022-11-14T12:56:13;6.93;;;6.32;;
40533;SDS011;26233;51.894;10.192;2022-11-14T13:02:27;6.80;;;6.20;;
40533;SDS011;26233;51.894;10.192;2022-11-14T13:05:37;7.05;;;6.45;;
40533;SDS011;26233;51.894;10.192;2022-11-14T13:08:20;6.50;;;6.00;;
40533;SDS011;26233;51.894;10.192;2022-11-14T13:11:34;5.95;;;5.45;;
40533;SDS011;26233;51.894;10.192;2022-11-14T13:14:22;5.72;;;5.22;;
40533;SDS011;26233;51.894;10.192;2022-11-14T13:17:08;6.15;;;5.65;;
40533;SDS011;26233;51.894;10.192;2022-11-14T13:20:21;6.22;;;5.72;;
40533;SDS011;26233;51.894;10.192;2022-11-14T13:29:49;5.47;;;4.97;;
40533;SDS011;26233;51.894;10.192;2022-11-14T13:48:25;4.22;;;3.90;;
40533;SDS011;26233;51.894;10.192;2022-11-14T13:51:25;4.10;;;3.80;;
40533;SDS011;26233;51.894;10.192;2022-11-14T13:53:54;4.25;;;3.85;;
40533;SDS011;26233;51.894;10.192;2022-11-14T13:56:30;3.92;;;3.63;;
40533;SDS011;26233;51.894;10.192;2022-11-14T13:59:20;4.00;;;3.70;;
40533;SDS011;26233;51.894;10.192;2022-11-14T14:02:25;3.72;;;3.42;;
40533;SDS011;26233;51.894;10.192;2022-11-14T14:05:28;3.97;;;3.67;;
40533;SDS011;26233;51.894;10.192;2022-11-14T14:08:08;4.13;;;3.63;;
40533;SDS011;26233;51.894;10.192;2022-11-14T14:11:01;4.45;;;4.05;;
40533;SDS011;26233;51.894;10.192;2022-11-14T14:13:54;4.00;;;3.67;;
40533;SDS011;26233;51.894;10.192;2022-11-14T14:16:33;3.95;;;3.65;;
40533;SDS011;26233;51.894;10.192;2022-11-14T14:19:11;4.28;;;3.97;;
40533;SDS011;26233;51.894;10.192;2022-11-14T14:21:48;4.60;;;4.20;;
40533;SDS011;26233;51.894;10.192;2022-11-14T14:24:33;4.65;;;4.25;;
40533;SDS011;26233;51.894;10.192;2022-11-14T14:27:19;3.95;;;3.65;;
40533;SDS011;26233;51.894;10.192;2022-11-14T14:29:57;4.38;;;3.97;;
40533;SDS011;26233;51.894;10.192;2022-11-14T14:32:33;4.10;;;3.80;;
40533;SDS011;26233;51.894;10.192;2022-11-14T14:35:15;4.53;;;3.72;;
40533;SDS011;26233;51.894;10.192;2022-11-14T14:37:50;3.95;;;3.65;;
40533;SDS011;26233;51.894;10.192;2022-11-14T14:40:23;3.97;;;3.67;;
40533;SDS011;26233;51.894;10.192;2022-11-14T14:42:52;4.30;;;3.90;;
40533;SDS011;26233;51.894;10.192;2022-11-14T14:45:21;3.88;;;3.58;;
40533;SDS011;26233;51.894;10.192;2022-11-14T14:47:58;3.75;;;3.45;;
40533;SDS011;26233;51.894;10.192;2022-11-14T14:50:30;3.47;;;3.17;;
40533;SDS011;26233;51.894;10.192;2022-11-14T14:53:03;3.58;;;3.28;;
40533;SDS011;26233;51.894;10.192;2022-11-14T14:55:31;4.03;;;3.72;;
40533;SDS011;26233;51.894;10.192;2022-11-14T14:58:13;5.82;;;5.25;;
40533;SDS011;26233;51.894;10.192;2022-11-14T15:00:49;7.40;;;5.40;;
40533;SDS011;26233;51.894;10.192;2022-11-14T15:03:20;10.07;;;5.82;;
40533;SDS011;26233;51.894;10.192;2022-11-14T15:05:56;6.03;;;5.43;;
40533;SDS011;26233;51.894;10.192;2022-11-14T15:08:28;10.88;;;5.72;;
40533;SDS011;26233;51.894;10.192;2022-11-14T15:11:01;35.85;;;6.97;;
40533;SDS011;26233;51.894;10.192;2022-11-14T15:13:30;8.20;;;4.90;;
40533;SDS011;26233;51.894;10.192;2022-11-14T15:15:57;6.07;;;4.82;;
40533;SDS011;26233;51.894;10.192;2022-11-14T15:18:27;5.45;;;4.60;;
40533;SDS011;26233;51.894;10.192;2022-11-14T15:21:07;6.78;;;4.03;;
40533;SDS011;26233;51.894;10.192;2022-11-14T15:23:39;3.95;;;3.65;;
40533;SDS011;26233;51.894;10.192;2022-11-14T15:26:10;3.78;;;3.47;;
40533;SDS011;26233;51.894;10.192;2022-11-14T15:28:40;3.50;;;3.10;;
40533;SDS011;26233;51.894;10.192;2022-11-14T15:31:12;3.35;;;3.05;;